createdAt,value
2019-02-09T00:01:03.999Z,58.79
2019-02-09T00:03:51.732Z,60.19
2019-02-09T00:06:39.465Z,59.42
2019-02-09T00:09:26.783Z,59.46
2019-02-09T00:12:14.004Z,58.70
2019-02-09T00:15:01.633Z,60.18
2019-02-09T00:17:49.265Z,60.10
2019-02-09T00:20:36.889Z,58.91
2019-02-09T00:23:24.728Z,58.30
2019-02-09T00:26:12.252Z,57.97
2019-02-09T00:28:59.585Z,59.03
2019-02-09T00:31:47.199Z,58.42
2019-02-09T00:34:34.623Z,59.43
2019-02-09T00:37:22.048Z,59.46
2019-02-09T00:40:12.404Z,60.23
2019-02-09T00:42:59.838Z,60.02
2019-02-09T00:45:47.698Z,59.88
2019-02-09T00:48:35.534Z,60.50
2019-02-09T00:51:23.161Z,59.55
2019-02-09T00:54:10.510Z,60.72
2019-02-09T00:56:58.113Z,59.97
2019-02-09T00:59:45.740Z,59.36
2019-02-09T01:02:33.063Z,60.36
2019-02-09T01:05:26.222Z,60.86
2019-02-09T01:08:13.913Z,61.03
2019-02-09T01:11:01.792Z,60.07
2019-02-09T01:13:49.115Z,59.71
2019-02-09T01:16:36.635Z,59.97
2019-02-09T01:19:24.320Z,59.64
2019-02-09T01:22:11.896Z,59.61
2019-02-09T01:24:59.214Z,60.35
2019-02-09T01:27:46.845Z,60.30
2019-02-09T01:30:34.472Z,60.59
2019-02-09T01:33:21.896Z,59.94
2019-02-09T01:36:09.116Z,60.07
2019-02-09T01:38:56.004Z,60.13
2019-02-09T01:41:43.964Z,59.97
2019-02-09T01:44:31.388Z,59.61
2019-02-09T01:47:18.502Z,59.29
2019-02-09T01:50:08.898Z,59.87
2019-02-09T01:52:56.527Z,59.73
2019-02-09T01:55:43.654Z,59.02
2019-02-09T01:58:30.967Z,58.64
2019-02-09T02:01:18.593Z,58.90
2019-02-09T02:04:05.813Z,59.48
2019-02-09T02:06:53.134Z,60.00
2019-02-09T02:09:40.872Z,58.80
2019-02-09T02:12:28.498Z,58.29
2019-02-09T02:15:17.777Z,58.98
2019-02-09T02:18:05.854Z,59.30
2019-02-09T02:20:53.432Z,58.28
2019-02-09T02:23:41.167Z,59.04
2019-02-09T02:26:28.483Z,59.00
2019-02-09T02:29:15.907Z,59.11
2019-02-09T02:32:03.278Z,59.68
2019-02-09T02:34:51.149Z,60.43
2019-02-09T02:37:38.591Z,60.16
2019-02-09T02:40:26.555Z,60.99
2019-02-09T02:43:13.953Z,63.38
2019-02-09T02:46:01.782Z,63.15
2019-02-09T02:48:49.105Z,63.80
2019-02-09T02:51:36.430Z,64.35
2019-02-09T02:54:24.161Z,64.99
2019-02-09T02:57:11.787Z,63.67
2019-02-09T02:59:59.314Z,64.08
2019-02-09T03:02:46.844Z,65.28
2019-02-09T03:05:34.577Z,65.02
2019-02-09T03:08:21.685Z,66.51
2019-02-09T03:11:09.319Z,66.56
2019-02-09T03:13:57.150Z,66.49
2019-02-09T03:16:44.168Z,67.80
2019-02-09T03:19:31.792Z,67.17
2019-02-09T03:22:18.810Z,67.44
2019-02-09T03:25:09.408Z,67.63
2019-02-09T03:27:56.727Z,68.26
2019-02-09T03:30:47.850Z,68.84
2019-02-09T03:33:32.812Z,68.60
2019-02-09T03:36:19.924Z,69.83
2019-02-09T03:39:08.021Z,68.81
2019-02-09T03:41:55.485Z,68.25
2019-02-09T03:44:42.709Z,67.59
2019-02-09T03:47:31.363Z,66.81
2019-02-09T03:50:21.240Z,67.24
2019-02-09T03:53:08.673Z,67.97
2019-02-09T03:55:56.090Z,69.51
2019-02-09T03:58:43.572Z,70.21
2019-02-09T04:01:31.455Z,69.82
2019-02-09T04:04:18.669Z,70.18
2019-02-09T04:07:06.573Z,70.95
2019-02-09T04:09:54.436Z,71.18
2019-02-09T04:12:42.170Z,70.09
2019-02-09T04:15:30.107Z,71.40
2019-02-09T04:18:17.341Z,72.58
2019-02-09T04:21:05.066Z,72.31
2019-02-09T04:23:52.380Z,72.35
2019-02-09T04:26:39.699Z,71.77
2019-02-09T04:29:27.537Z,71.45
2019-02-09T04:32:14.960Z,71.39
2019-02-09T04:35:02.805Z,72.29
2019-02-09T04:37:49.906Z,73.99
2019-02-09T04:40:37.949Z,73.61
2019-02-09T04:43:25.779Z,73.19
2019-02-09T04:46:12.998Z,72.28
2019-02-09T04:49:00.627Z,72.41
2019-02-09T04:51:48.566Z,71.99
2019-02-09T04:54:35.578Z,71.84
2019-02-09T04:57:22.899Z,73.14
2019-02-09T05:00:13.504Z,72.36
2019-02-09T05:03:01.090Z,73.24
2019-02-09T05:05:48.142Z,73.39
2019-02-09T05:08:35.668Z,73.02
2019-02-09T05:11:22.988Z,72.80
2019-02-09T05:14:10.826Z,72.44
2019-02-09T05:16:57.839Z,70.94
2019-02-09T05:19:45.675Z,69.92
2019-02-09T05:22:33.299Z,69.78
2019-02-09T05:25:21.037Z,70.30
2019-02-09T05:28:08.457Z,70.94
2019-02-09T05:30:55.778Z,70.93
2019-02-09T05:33:42.689Z,71.20
2019-02-09T05:36:29.704Z,70.61
2019-02-09T05:39:17.026Z,71.03
2019-02-09T05:42:04.346Z,70.69
2019-02-09T05:44:51.848Z,69.41
2019-02-09T05:47:39.521Z,70.17
2019-02-09T05:50:27.235Z,71.63
2019-02-09T05:53:14.969Z,71.76
2019-02-09T05:56:02.366Z,73.18
2019-02-09T05:58:49.917Z,73.68
2019-02-09T06:01:37.343Z,74.01
2019-02-09T06:04:25.006Z,72.94
2019-02-09T06:07:12.191Z,73.87
2019-02-09T06:09:59.923Z,73.35
2019-02-09T06:12:47.957Z,72.12
2019-02-09T06:15:35.185Z,70.39
2019-02-09T06:18:22.708Z,70.38
2019-02-09T06:21:10.435Z,72.35
2019-02-09T06:23:57.551Z,71.44
2019-02-09T06:26:44.976Z,72.37
2019-02-09T06:29:32.499Z,72.24
2019-02-09T06:32:20.133Z,71.29
2019-02-09T06:35:09.964Z,72.20
2019-02-09T06:37:57.441Z,72.29
2019-02-09T06:40:45.375Z,71.58
2019-02-09T06:43:32.537Z,71.26
2019-02-09T06:46:20.120Z,70.17
2019-02-09T06:49:08.059Z,70.40
2019-02-09T06:51:55.381Z,70.91
2019-02-09T06:54:43.109Z,69.55
2019-02-09T06:57:30.538Z,70.00
2019-02-09T07:00:20.377Z,70.17
2019-02-09T07:03:07.942Z,69.26
2019-02-09T07:05:55.775Z,70.18
2019-02-09T07:08:43.404Z,70.42
2019-02-09T07:11:30.741Z,70.17
2019-02-09T07:14:18.250Z,70.65
2019-02-09T07:17:05.908Z,70.53
2019-02-09T07:19:53.202Z,69.99
2019-02-09T07:22:40.629Z,69.70
2019-02-09T07:25:28.254Z,69.97
2019-02-09T07:28:15.597Z,70.64
2019-02-09T07:31:03.000Z,69.86
2019-02-09T07:33:51.453Z,69.68
2019-02-09T07:36:39.078Z,70.23
2019-02-09T07:39:26.093Z,70.38
2019-02-09T07:42:13.418Z,70.02
2019-02-09T07:45:01.146Z,70.20
2019-02-09T07:47:48.569Z,70.39
2019-02-09T07:50:35.786Z,69.83
2019-02-09T07:53:23.419Z,69.89
2019-02-09T07:56:11.049Z,70.39
2019-02-09T07:58:58.165Z,70.19
2019-02-09T08:01:45.383Z,68.99
2019-02-09T08:04:32.912Z,67.63
2019-02-09T08:07:20.640Z,67.47
2019-02-09T08:10:16.771Z,67.29
2019-02-09T08:13:06.947Z,66.69
2019-02-09T08:15:55.611Z,65.91
2019-02-09T08:18:43.137Z,66.66
2019-02-09T08:21:30.669Z,66.45
2019-02-09T08:24:18.401Z,66.99
2019-02-09T08:27:05.446Z,68.40
2019-02-09T08:29:53.042Z,67.27
2019-02-09T08:32:40.561Z,66.18
2019-02-09T08:35:28.193Z,66.05
2019-02-09T08:38:16.865Z,65.60
2019-02-09T08:41:04.171Z,65.52
2019-02-09T08:43:51.390Z,65.69
2019-02-09T08:46:38.613Z,65.40
2019-02-09T08:49:26.343Z,65.46
2019-02-09T08:52:13.417Z,66.22
2019-02-09T08:55:01.083Z,66.71
2019-02-09T08:57:48.816Z,66.96
2019-02-09T09:00:37.163Z,66.94
2019-02-09T09:03:25.098Z,65.43
2019-02-09T09:06:12.420Z,64.82
2019-02-09T09:08:59.534Z,64.50
2019-02-09T09:11:47.165Z,64.56
2019-02-09T09:14:34.998Z,64.74
2019-02-09T09:17:22.933Z,64.48
2019-02-09T09:20:13.459Z,62.93
2019-02-09T09:23:00.957Z,63.40
2019-02-09T09:25:48.583Z,64.06
2019-02-09T09:28:35.908Z,63.96
2019-02-09T09:31:24.764Z,64.67
2019-02-09T09:34:12.498Z,63.16
2019-02-09T09:36:59.925Z,61.85
2019-02-09T09:39:48.475Z,61.65
2019-02-09T09:42:36.203Z,61.86
2019-02-09T09:45:31.513Z,62.95
2019-02-09T09:48:22.295Z,62.69
2019-02-09T09:51:10.047Z,62.47
2019-02-09T09:53:57.887Z,61.75
2019-02-09T09:56:45.920Z,61.58
2019-02-09T09:59:33.138Z,62.16
2019-02-09T10:02:20.460Z,62.59
2019-02-09T10:05:09.733Z,61.09
2019-02-09T10:07:56.945Z,61.14
2019-02-09T10:10:44.269Z,61.42
2019-02-09T10:13:32.100Z,60.96
2019-02-09T10:16:20.447Z,60.18
2019-02-09T10:19:08.284Z,60.79
2019-02-09T10:21:55.608Z,60.02
2019-02-09T10:24:42.926Z,59.13
2019-02-09T10:27:30.657Z,57.29
2019-02-09T10:30:20.166Z,57.26
2019-02-09T10:33:07.859Z,58.19
2019-02-09T10:35:55.284Z,58.16
2019-02-09T10:38:42.402Z,57.73
2019-02-09T10:41:29.941Z,57.72
2019-02-09T10:44:17.503Z,56.36
2019-02-09T10:47:05.395Z,56.58
2019-02-09T10:49:52.816Z,55.01
2019-02-09T10:52:40.238Z,55.39
2019-02-09T10:55:27.768Z,56.17
2019-02-09T10:58:14.987Z,56.48
2019-02-09T11:01:05.991Z,55.33
2019-02-09T11:03:53.520Z,53.40
2019-02-09T11:06:40.638Z,52.72
2019-02-09T11:09:28.273Z,53.09
2019-02-09T11:12:16.099Z,53.39
2019-02-09T11:15:04.853Z,52.04
2019-02-09T11:17:52.850Z,52.58
2019-02-09T11:20:40.420Z,51.94
2019-02-09T11:23:28.352Z,52.09
2019-02-09T11:26:15.680Z,52.52
2019-02-09T11:29:03.306Z,52.30
2019-02-09T11:31:50.424Z,51.71
2019-02-09T11:34:38.123Z,50.98
2019-02-09T11:37:25.580Z,49.94
2019-02-09T11:40:29.913Z,49.46
2019-02-09T11:43:17.061Z,49.23
2019-02-09T11:46:05.161Z,49.11
2019-02-09T11:48:52.682Z,48.36
2019-02-09T11:51:39.901Z,48.55
2019-02-09T11:54:27.835Z,49.48
2019-02-09T11:57:15.262Z,49.47
2019-02-09T12:00:02.486Z,50.48
2019-02-09T12:02:49.837Z,49.98
2019-02-09T12:05:37.335Z,52.24
2019-02-09T12:08:24.958Z,52.50
2019-02-09T12:11:12.659Z,52.63
2019-02-09T12:14:01.727Z,51.23
2019-02-09T12:16:49.381Z,51.79
2019-02-09T12:19:36.807Z,51.80
2019-02-09T12:22:24.435Z,52.17
2019-02-09T12:25:27.217Z,50.71
2019-02-09T12:28:16.796Z,51.33
2019-02-09T12:31:04.012Z,50.40
2019-02-09T12:33:51.234Z,50.10
2019-02-09T12:36:39.067Z,51.02
2019-02-09T12:39:26.799Z,52.00
2019-02-09T12:42:14.226Z,51.31
2019-02-09T12:45:01.652Z,51.40
2019-02-09T12:47:49.956Z,49.92
2019-02-09T12:50:37.620Z,50.93
2019-02-09T12:53:25.348Z,51.55
2019-02-09T12:56:12.981Z,52.02
2019-02-09T12:59:00.815Z,50.71
2019-02-09T13:01:48.033Z,51.88
2019-02-09T13:04:35.672Z,51.33
2019-02-09T13:07:23.392Z,52.04
2019-02-09T13:10:16.103Z,51.85
2019-02-09T13:13:03.157Z,52.20
2019-02-09T13:15:50.484Z,51.17
2019-02-09T13:18:38.005Z,51.05
2019-02-09T13:21:27.587Z,51.47
2019-02-09T13:24:15.006Z,50.96
2019-02-09T13:27:02.575Z,51.76
2019-02-09T13:29:50.478Z,52.56
2019-02-09T13:32:37.996Z,53.52
2019-02-09T13:35:25.215Z,54.21
2019-02-09T13:38:12.892Z,54.06
2019-02-09T13:41:00.372Z,54.95
2019-02-09T13:43:47.591Z,55.08
2019-02-09T13:46:34.908Z,55.08
2019-02-09T13:49:22.244Z,55.24
2019-02-09T13:52:09.968Z,54.41
2019-02-09T13:54:57.639Z,54.14
2019-02-09T13:57:45.014Z,54.63
2019-02-09T14:00:33.204Z,53.13
2019-02-09T14:03:20.792Z,53.52
2019-02-09T14:06:08.599Z,53.46
2019-02-09T14:08:55.940Z,52.93
2019-02-09T14:11:42.956Z,53.38
2019-02-09T14:14:30.482Z,54.42
2019-02-09T14:17:17.908Z,53.03
2019-02-09T14:20:08.001Z,54.06
2019-02-09T14:22:55.621Z,53.29
2019-02-09T14:25:42.740Z,52.78
2019-02-09T14:28:30.575Z,53.15
2019-02-09T14:31:17.793Z,53.51
2019-02-09T14:34:06.911Z,53.08
2019-02-09T14:36:54.692Z,54.11
2019-02-09T14:39:42.320Z,54.94
2019-02-09T14:42:29.748Z,54.91
2019-02-09T14:45:40.624Z,54.49
2019-02-09T14:48:28.147Z,53.92
2019-02-09T14:51:15.979Z,55.38
2019-02-09T14:54:03.105Z,54.89
2019-02-09T14:56:51.032Z,54.93
2019-02-09T14:59:38.467Z,54.57
2019-02-09T15:02:26.287Z,55.70
2019-02-09T15:05:14.256Z,55.81
2019-02-09T15:08:02.875Z,55.70
2019-02-09T15:10:50.510Z,55.98
2019-02-09T15:13:38.442Z,56.12
2019-02-09T15:16:28.676Z,54.96
2019-02-09T15:19:15.955Z,55.48
2019-02-09T15:22:03.786Z,55.90
2019-02-09T15:24:51.521Z,54.96
2019-02-09T15:27:38.845Z,55.48
2019-02-09T15:30:29.438Z,54.63
2019-02-09T15:33:16.698Z,54.34
2019-02-09T15:36:04.706Z,53.96
2019-02-09T15:38:52.241Z,55.92
2019-02-09T15:41:39.650Z,56.04
2019-02-09T15:44:27.108Z,56.49
2019-02-09T15:47:14.914Z,57.42
2019-02-09T15:50:02.757Z,56.65
2019-02-09T15:52:50.884Z,56.38
2019-02-09T15:55:38.716Z,57.25
2019-02-09T15:58:25.943Z,56.39
2019-02-09T16:01:14.099Z,56.09
2019-02-09T16:04:01.519Z,56.32
2019-02-09T16:06:49.142Z,57.07
2019-02-09T16:09:36.876Z,56.11
2019-02-09T16:12:24.287Z,57.10
2019-02-09T16:15:16.499Z,56.29
2019-02-09T16:18:04.972Z,56.08
2019-02-09T16:20:52.290Z,57.53
2019-02-09T16:23:39.816Z,58.21
2019-02-09T16:26:27.137Z,58.37
2019-02-09T16:29:14.459Z,58.27
2019-02-09T16:32:02.105Z,58.29
2019-02-09T16:34:49.311Z,57.98
2019-02-09T16:37:36.936Z,57.32
2019-02-09T16:40:26.471Z,58.22
2019-02-09T16:43:14.256Z,58.93
2019-02-09T16:46:02.180Z,59.64
2019-02-09T16:48:49.502Z,59.10
2019-02-09T16:51:38.153Z,57.88
2019-02-09T16:54:25.987Z,58.08
2019-02-09T16:57:13.477Z,59.55
2019-02-09T17:00:00.631Z,60.32
2019-02-09T17:02:48.276Z,60.58
2019-02-09T17:05:37.120Z,60.95
2019-02-09T17:08:25.586Z,60.08
2019-02-09T17:11:12.719Z,59.39
2019-02-09T17:14:00.516Z,58.91
2019-02-09T17:16:48.555Z,57.67
2019-02-09T17:19:36.181Z,58.09
2019-02-09T17:22:23.505Z,59.03
2019-02-09T17:25:14.017Z,60.53
2019-02-09T17:28:01.426Z,59.71
2019-02-09T17:30:49.160Z,59.95
2019-02-09T17:33:36.791Z,60.12
2019-02-09T17:36:24.519Z,60.57
2019-02-09T17:39:12.678Z,61.65
2019-02-09T17:42:00.291Z,61.40
2019-02-09T17:44:48.129Z,61.68
2019-02-09T17:47:35.448Z,61.18
2019-02-09T17:50:23.275Z,60.74
2019-02-09T17:53:11.169Z,61.00
2019-02-09T17:55:59.456Z,60.34
2019-02-09T17:58:47.392Z,58.71
2019-02-09T18:01:34.920Z,58.12
2019-02-09T18:04:23.574Z,58.45
2019-02-09T18:07:11.513Z,59.68
2019-02-09T18:09:59.034Z,59.88
2019-02-09T18:12:47.071Z,59.98
2019-02-09T18:15:34.805Z,58.51
2019-02-09T18:18:22.754Z,58.27
2019-02-09T18:21:11.395Z,59.17
2019-02-09T18:23:42.748Z,57.43
2019-02-09T18:26:30.172Z,57.15
2019-02-09T18:29:17.794Z,57.07
2019-02-09T18:32:09.633Z,57.23
2019-02-09T18:34:57.047Z,58.02
2019-02-09T18:37:44.682Z,57.04
2019-02-09T18:40:31.998Z,58.05
2019-02-09T18:43:19.423Z,56.90
2019-02-09T18:46:06.945Z,56.12
2019-02-09T18:48:54.374Z,55.72
2019-02-09T18:51:41.501Z,55.78
2019-02-09T18:54:29.322Z,56.08
2019-02-09T18:57:16.856Z,56.48
2019-02-09T19:00:07.241Z,56.29
2019-02-09T19:02:54.714Z,58.10
2019-02-09T19:05:42.398Z,58.08
2019-02-09T19:08:30.151Z,58.68
2019-02-09T19:11:17.658Z,58.77
2019-02-09T19:14:05.258Z,58.45
2019-02-09T19:16:53.526Z,59.13
2019-02-09T19:19:40.848Z,59.82
2019-02-09T19:22:28.295Z,59.74
2019-02-09T19:25:18.844Z,59.46
2019-02-09T19:28:06.504Z,59.78
2019-02-09T19:30:54.210Z,59.60
2019-02-09T19:33:41.659Z,59.67
2019-02-09T19:36:29.183Z,61.66
2019-02-09T19:39:16.912Z,61.41
2019-02-09T19:42:04.445Z,61.40
2019-02-09T19:44:52.780Z,61.80
2019-02-09T19:47:40.519Z,60.94
2019-02-09T19:50:28.146Z,61.76
2019-02-09T19:53:15.782Z,62.14
2019-02-09T19:56:03.403Z,62.57
2019-02-09T19:58:50.524Z,61.40
2019-02-09T20:01:38.184Z,62.40
2019-02-09T20:04:25.369Z,62.43
2019-02-09T20:07:12.644Z,62.32
2019-02-09T20:10:00.280Z,62.39
2019-02-09T20:12:47.646Z,62.67
2019-02-09T20:15:36.192Z,62.59
2019-02-09T20:18:23.754Z,61.74
2019-02-09T20:21:12.184Z,61.70
2019-02-09T20:24:00.057Z,62.56
2019-02-09T20:26:47.551Z,63.02
2019-02-09T20:29:34.957Z,61.70
2019-02-09T20:32:22.895Z,62.61
2019-02-09T20:35:14.775Z,62.86
2019-02-09T20:38:01.965Z,62.87
2019-02-09T20:41:10.203Z,63.59
2019-02-09T20:43:58.080Z,63.07
2019-02-09T20:46:45.417Z,63.83
2019-02-09T20:49:32.928Z,61.99
2019-02-09T20:52:20.257Z,60.70
2019-02-09T20:55:10.183Z,60.43
2019-02-09T20:57:57.485Z,60.64
2019-02-09T21:00:44.779Z,61.95
2019-02-09T21:03:32.202Z,62.59
2019-02-09T21:06:19.660Z,61.34
2019-02-09T21:09:08.464Z,61.47
2019-02-09T21:11:55.501Z,61.76
2019-02-09T21:14:44.251Z,62.68
2019-02-09T21:17:31.884Z,62.60
2019-02-09T21:20:19.885Z,61.63
2019-02-09T21:23:07.706Z,61.61
2019-02-09T21:25:55.076Z,61.18
2019-02-09T21:28:42.396Z,62.39
2019-02-09T21:31:30.237Z,63.18
2019-02-09T21:34:17.356Z,63.19
2019-02-09T21:37:05.402Z,63.02
2019-02-09T21:39:53.077Z,62.68
2019-02-09T21:42:41.161Z,62.55
2019-02-09T21:45:28.835Z,61.19
2019-02-09T21:48:15.904Z,61.73
2019-02-09T21:51:03.635Z,61.85
2019-02-09T21:53:51.467Z,61.89
2019-02-09T21:56:38.491Z,61.78
2019-02-09T21:59:26.110Z,62.14
2019-02-09T22:02:14.866Z,62.84
2019-02-09T22:05:02.290Z,63.68
2019-02-09T22:07:49.825Z,62.96
2019-02-09T22:10:37.245Z,64.01
2019-02-09T22:13:24.777Z,64.18
2019-02-09T22:16:12.190Z,63.59
2019-02-09T22:18:59.731Z,63.36
2019-02-09T22:21:47.207Z,63.52
2019-02-09T22:24:34.470Z,65.27
2019-02-09T22:27:22.094Z,65.36
2019-02-09T22:30:12.505Z,65.28
2019-02-09T22:33:00.671Z,64.12
2019-02-09T22:35:48.059Z,64.12
2019-02-09T22:38:35.476Z,64.30
2019-02-09T22:41:22.903Z,64.14
2019-02-09T22:44:10.328Z,65.28
2019-02-09T22:46:57.966Z,64.79
2019-02-09T22:49:45.277Z,64.87
2019-02-09T22:52:32.624Z,64.56
2019-02-09T22:55:21.940Z,64.07
2019-02-09T22:58:09.601Z,63.77
2019-02-09T23:01:16.681Z,64.20
2019-02-09T23:04:18.957Z,63.58
2019-02-09T23:07:06.584Z,64.49
2019-02-09T23:09:54.111Z,64.75
2019-02-09T23:12:48.451Z,64.26
2019-02-09T23:15:30.495Z,63.50
2019-02-09T23:18:18.635Z,64.15
2019-02-09T23:21:06.263Z,65.12
2019-02-09T23:23:53.790Z,64.47
2019-02-09T23:26:41.111Z,65.71
2019-02-09T23:29:28.637Z,65.20
2019-02-09T23:32:16.267Z,64.35
2019-02-09T23:35:04.205Z,63.50
2019-02-09T23:37:51.836Z,63.33
2019-02-09T23:40:39.158Z,63.53
2019-02-09T23:43:26.382Z,63.23
2019-02-09T23:46:13.799Z,62.66
2019-02-09T23:49:01.633Z,63.45
2019-02-09T23:51:49.469Z,63.31
2019-02-09T23:54:36.994Z,63.50
2019-02-09T23:57:24.726Z,62.98
